Terminal Aerodrome Forecast
Issued by NWS

Home | Current Version | Previous Version | Text Only | Print | Product List | Glossary On
Versions: 1 2 3 4 5 6 7 8 9 10 11 12 13 14 15 16
000
FTUS43 KDMX 171128
TAFMCW
TAF
KMCW 171128Z 1712/1812 31018KT P6SM OVC008
     FM171400 33013G21KT P6SM BKN014
     FM171800 33012KT P6SM SCT020 BKN200
     FM180100 VRB05KT P6SM BKN200=

USA.gov is the U.S. government's official web portal to all federal, state and local government web resources and services.